sensor_id;sensor_type;location;lat;lon;timestamp;P1;durP1;ratioP1;P2;durP2;ratioP2
14892;SDS011;7538;53.626;9.906;2022-10-31T00:01:59;26.08;;;21.23;;
14892;SDS011;7538;53.626;9.906;2022-10-31T00:04:26;26.02;;;20.38;;
14892;SDS011;7538;53.626;9.906;2022-10-31T00:06:53;23.27;;;20.88;;
14892;SDS011;7538;53.626;9.906;2022-10-31T00:09:21;24.27;;;19.55;;
14892;SDS011;7538;53.626;9.906;2022-10-31T00:11:47;22.40;;;19.83;;
14892;SDS011;7538;53.626;9.906;2022-10-31T00:14:14;24.08;;;19.60;;
14892;SDS011;7538;53.626;9.906;2022-10-31T00:16:41;23.55;;;19.08;;
14892;SDS011;7538;53.626;9.906;2022-10-31T00:19:08;22.60;;;19.10;;
14892;SDS011;7538;53.626;9.906;2022-10-31T00:21:34;22.45;;;19.58;;
14892;SDS011;7538;53.626;9.906;2022-10-31T00:24:02;23.58;;;18.63;;
14892;SDS011;7538;53.626;9.906;2022-10-31T00:26:30;23.75;;;20.20;;
14892;SDS011;7538;53.626;9.906;2022-10-31T00:28:58;26.05;;;18.77;;
14892;SDS011;7538;53.626;9.906;2022-10-31T00:31:25;21.58;;;18.05;;
14892;SDS011;7538;53.626;9.906;2022-10-31T00:33:52;22.05;;;19.63;;
14892;SDS011;7538;53.626;9.906;2022-10-31T00:36:19;23.42;;;19.45;;
14892;SDS011;7538;53.626;9.906;2022-10-31T00:38:46;24.38;;;21.77;;
14892;SDS011;7538;53.626;9.906;2022-10-31T00:41:14;27.40;;;19.73;;
14892;SDS011;7538;53.626;9.906;2022-10-31T00:43:43;24.85;;;19.30;;
14892;SDS011;7538;53.626;9.906;2022-10-31T00:46:11;23.60;;;19.35;;
14892;SDS011;7538;53.626;9.906;2022-10-31T00:48:38;21.75;;;19.15;;
14892;SDS011;7538;53.626;9.906;2022-10-31T00:51:05;23.15;;;20.67;;
14892;SDS011;7538;53.626;9.906;2022-10-31T00:53:32;26.42;;;20.77;;
14892;SDS011;7538;53.626;9.906;2022-10-31T00:55:59;27.63;;;20.13;;
14892;SDS011;7538;53.626;9.906;2022-10-31T00:58:26;23.45;;;20.95;;
14892;SDS011;7538;53.626;9.906;2022-10-31T01:00:54;26.10;;;20.35;;
14892;SDS011;7538;53.626;9.906;2022-10-31T01:03:21;27.02;;;21.15;;
14892;SDS011;7538;53.626;9.906;2022-10-31T01:05:55;27.65;;;21.95;;
14892;SDS011;7538;53.626;9.906;2022-10-31T01:08:25;27.02;;;21.95;;
14892;SDS011;7538;53.626;9.906;2022-10-31T01:10:59;24.42;;;20.38;;
14892;SDS011;7538;53.626;9.906;2022-10-31T01:13:27;25.08;;;21.00;;
14892;SDS011;7538;53.626;9.906;2022-10-31T01:15:55;26.95;;;20.38;;
14892;SDS011;7538;53.626;9.906;2022-10-31T01:18:23;26.63;;;21.42;;
14892;SDS011;7538;53.626;9.906;2022-10-31T01:20:57;27.08;;;21.67;;
14892;SDS011;7538;53.626;9.906;2022-10-31T01:23:25;28.13;;;22.58;;
14892;SDS011;7538;53.626;9.906;2022-10-31T01:25:58;30.75;;;24.85;;
14892;SDS011;7538;53.626;9.906;2022-10-31T01:28:30;26.60;;;22.77;;
14892;SDS011;7538;53.626;9.906;2022-10-31T01:31:01;29.52;;;22.52;;
14892;SDS011;7538;53.626;9.906;2022-10-31T01:33:28;29.70;;;22.48;;
14892;SDS011;7538;53.626;9.906;2022-10-31T01:35:55;31.20;;;23.08;;
14892;SDS011;7538;53.626;9.906;2022-10-31T01:38:22;31.83;;;23.17;;
14892;SDS011;7538;53.626;9.906;2022-10-31T01:40:49;26.52;;;21.90;;
14892;SDS011;7538;53.626;9.906;2022-10-31T01:43:16;30.52;;;22.27;;
14892;SDS011;7538;53.626;9.906;2022-10-31T01:45:44;29.83;;;22.98;;
14892;SDS011;7538;53.626;9.906;2022-10-31T01:48:18;32.83;;;23.73;;
14892;SDS011;7538;53.626;9.906;2022-10-31T01:50:49;29.70;;;22.20;;
14892;SDS011;7538;53.626;9.906;2022-10-31T01:53:17;28.27;;;21.65;;
14892;SDS011;7538;53.626;9.906;2022-10-31T01:55:44;31.75;;;21.35;;
14892;SDS011;7538;53.626;9.906;2022-10-31T01:58:14;24.13;;;20.45;;
14892;SDS011;7538;53.626;9.906;2022-10-31T02:00:45;32.05;;;22.63;;
14892;SDS011;7538;53.626;9.906;2022-10-31T02:03:16;30.60;;;22.35;;
14892;SDS011;7538;53.626;9.906;2022-10-31T02:05:46;30.80;;;22.30;;
14892;SDS011;7538;53.626;9.906;2022-10-31T02:08:14;31.75;;;22.08;;
14892;SDS011;7538;53.626;9.906;2022-10-31T02:10:44;32.03;;;23.15;;
14892;SDS011;7538;53.626;9.906;2022-10-31T02:13:11;30.88;;;23.13;;
14892;SDS011;7538;53.626;9.906;2022-10-31T02:15:39;29.73;;;23.00;;
14892;SDS011;7538;53.626;9.906;2022-10-31T02:18:07;35.70;;;25.73;;
14892;SDS011;7538;53.626;9.906;2022-10-31T02:20:37;33.40;;;25.63;;
14892;SDS011;7538;53.626;9.906;2022-10-31T02:23:20;38.45;;;25.83;;
14892;SDS011;7538;53.626;9.906;2022-10-31T02:26:16;32.97;;;24.35;;
14892;SDS011;7538;53.626;9.906;2022-10-31T02:29:18;34.10;;;25.25;;
14892;SDS011;7538;53.626;9.906;2022-10-31T02:31:58;35.15;;;26.60;;
14892;SDS011;7538;53.626;9.906;2022-10-31T02:34:32;41.35;;;28.55;;
14892;SDS011;7538;53.626;9.906;2022-10-31T02:37:05;46.97;;;32.35;;
14892;SDS011;7538;53.626;9.906;2022-10-31T02:39:38;38.83;;;28.80;;
14892;SDS011;7538;53.626;9.906;2022-10-31T02:42:14;42.55;;;29.23;;
14892;SDS011;7538;53.626;9.906;2022-10-31T02:44:45;41.83;;;28.27;;
14892;SDS011;7538;53.626;9.906;2022-10-31T02:47:21;43.67;;;29.02;;
14892;SDS011;7538;53.626;9.906;2022-10-31T02:49:53;43.88;;;29.05;;
14892;SDS011;7538;53.626;9.906;2022-10-31T02:52:24;52.80;;;33.67;;
14892;SDS011;7538;53.626;9.906;2022-10-31T02:54:53;44.90;;;32.00;;
14892;SDS011;7538;53.626;9.906;2022-10-31T02:57:20;39.50;;;29.23;;
14892;SDS011;7538;53.626;9.906;2022-10-31T02:59:50;39.85;;;27.42;;
14892;SDS011;7538;53.626;9.906;2022-10-31T03:08:12;42.85;;;27.80;;
14892;SDS011;7538;53.626;9.906;2022-10-31T03:10:48;55.53;;;32.65;;
14892;SDS011;7538;53.626;9.906;2022-10-31T03:13:20;49.25;;;31.42;;
14892;SDS011;7538;53.626;9.906;2022-10-31T03:15:53;49.70;;;32.28;;
14892;SDS011;7538;53.626;9.906;2022-10-31T03:18:31;53.13;;;34.33;;
14892;SDS011;7538;53.626;9.906;2022-10-31T03:21:04;65.45;;;36.92;;
14892;SDS011;7538;53.626;9.906;2022-10-31T03:23:33;61.35;;;36.00;;
14892;SDS011;7538;53.626;9.906;2022-10-31T03:26:04;57.42;;;34.25;;
14892;SDS011;7538;53.626;9.906;2022-10-31T03:28:34;43.95;;;28.92;;
14892;SDS011;7538;53.626;9.906;2022-10-31T03:31:04;47.50;;;32.05;;
14892;SDS011;7538;53.626;9.906;2022-10-31T03:33:34;60.55;;;34.65;;
14892;SDS011;7538;53.626;9.906;2022-10-31T03:36:03;45.45;;;29.95;;
14892;SDS011;7538;53.626;9.906;2022-10-31T03:38:34;58.05;;;33.58;;
14892;SDS011;7538;53.626;9.906;2022-10-31T03:41:02;58.38;;;34.78;;
14892;SDS011;7538;53.626;9.906;2022-10-31T03:43:32;55.67;;;32.50;;
14892;SDS011;7538;53.626;9.906;2022-10-31T03:46:04;50.90;;;31.15;;
14892;SDS011;7538;53.626;9.906;2022-10-31T03:48:31;68.90;;;39.05;;
14892;SDS011;7538;53.626;9.906;2022-10-31T03:51:02;63.65;;;36.90;;
14892;SDS011;7538;53.626;9.906;2022-10-31T03:53:34;69.80;;;38.30;;
14892;SDS011;7538;53.626;9.906;2022-10-31T03:56:07;66.80;;;36.88;;
14892;SDS011;7538;53.626;9.906;2022-10-31T03:58:39;57.63;;;34.30;;
14892;SDS011;7538;53.626;9.906;2022-10-31T04:01:13;71.13;;;40.65;;
14892;SDS011;7538;53.626;9.906;2022-10-31T04:03:43;63.92;;;37.90;;
14892;SDS011;7538;53.626;9.906;2022-10-31T04:06:12;59.40;;;35.13;;
14892;SDS011;7538;53.626;9.906;2022-10-31T04:08:44;66.75;;;36.15;;
14892;SDS011;7538;53.626;9.906;2022-10-31T04:11:14;68.72;;;39.00;;
14892;SDS011;7538;53.626;9.906;2022-10-31T04:13:45;57.30;;;34.25;;
14892;SDS011;7538;53.626;9.906;2022-10-31T04:16:13;59.88;;;33.88;;
14892;SDS011;7538;53.626;9.906;2022-10-31T04:18:41;58.05;;;34.28;;
14892;SDS011;7538;53.626;9.906;2022-10-31T04:21:08;60.13;;;36.08;;
14892;SDS011;7538;53.626;9.906;2022-10-31T04:23:36;54.97;;;32.25;;
14892;SDS011;7538;53.626;9.906;2022-10-31T04:26:03;52.53;;;31.23;;
14892;SDS011;7538;53.626;9.906;2022-10-31T04:28:30;51.00;;;31.80;;
14892;SDS011;7538;53.626;9.906;2022-10-31T04:30:58;62.80;;;35.60;;
14892;SDS011;7538;53.626;9.906;2022-10-31T04:33:25;67.82;;;37.97;;
14892;SDS011;7538;53.626;9.906;2022-10-31T04:35:52;70.35;;;41.55;;
14892;SDS011;7538;53.626;9.906;2022-10-31T04:38:19;72.03;;;39.70;;
14892;SDS011;7538;53.626;9.906;2022-10-31T04:40:47;78.10;;;42.30;;
14892;SDS011;7538;53.626;9.906;2022-10-31T04:43:13;71.38;;;38.90;;
14892;SDS011;7538;53.626;9.906;2022-10-31T04:45:40;73.30;;;39.47;;
14892;SDS011;7538;53.626;9.906;2022-10-31T04:48:07;95.25;;;45.83;;
14892;SDS011;7538;53.626;9.906;2022-10-31T04:50:34;92.72;;;43.97;;
14892;SDS011;7538;53.626;9.906;2022-10-31T04:53:00;87.05;;;44.85;;
14892;SDS011;7538;53.626;9.906;2022-10-31T04:55:27;70.28;;;38.67;;
14892;SDS011;7538;53.626;9.906;2022-10-31T04:57:55;76.13;;;41.78;;
14892;SDS011;7538;53.626;9.906;2022-10-31T05:00:22;61.92;;;36.25;;
14892;SDS011;7538;53.626;9.906;2022-10-31T05:02:49;77.65;;;40.97;;
14892;SDS011;7538;53.626;9.906;2022-10-31T05:05:19;73.47;;;39.38;;
14892;SDS011;7538;53.626;9.906;2022-10-31T05:07:47;101.63;;;45.47;;
14892;SDS011;7538;53.626;9.906;2022-10-31T05:10:15;89.97;;;40.92;;
14892;SDS011;7538;53.626;9.906;2022-10-31T05:12:46;90.15;;;41.80;;
14892;SDS011;7538;53.626;9.906;2022-10-31T05:15:15;87.78;;;41.58;;
14892;SDS011;7538;53.626;9.906;2022-10-31T05:17:43;90.63;;;40.58;;
14892;SDS011;7538;53.626;9.906;2022-10-31T05:20:10;80.25;;;41.35;;
14892;SDS011;7538;53.626;9.906;2022-10-31T05:22:41;69.68;;;37.35;;
14892;SDS011;7538;53.626;9.906;2022-10-31T05:25:08;77.75;;;40.15;;
14892;SDS011;7538;53.626;9.906;2022-10-31T05:27:37;68.82;;;36.83;;
14892;SDS011;7538;53.626;9.906;2022-10-31T05:30:05;64.57;;;36.20;;
14892;SDS011;7538;53.626;9.906;2022-10-31T05:32:37;55.42;;;34.05;;
14892;SDS011;7538;53.626;9.906;2022-10-31T05:35:05;76.43;;;37.60;;
14892;SDS011;7538;53.626;9.906;2022-10-31T05:37:33;68.45;;;34.72;;
14892;SDS011;7538;53.626;9.906;2022-10-31T05:40:00;57.58;;;32.53;;
14892;SDS011;7538;53.626;9.906;2022-10-31T05:42:26;57.25;;;32.72;;
14892;SDS011;7538;53.626;9.906;2022-10-31T05:44:53;64.95;;;34.78;;
14892;SDS011;7538;53.626;9.906;2022-10-31T05:47:20;92.82;;;38.30;;
14892;SDS011;7538;53.626;9.906;2022-10-31T05:49:48;81.22;;;38.47;;
14892;SDS011;7538;53.626;9.906;2022-10-31T05:52:15;60.88;;;32.70;;
14892;SDS011;7538;53.626;9.906;2022-10-31T05:54:42;60.00;;;32.42;;
14892;SDS011;7538;53.626;9.906;2022-10-31T05:57:09;63.08;;;33.33;;
14892;SDS011;7538;53.626;9.906;2022-10-31T05:59:36;59.35;;;31.75;;
14892;SDS011;7538;53.626;9.906;2022-10-31T06:02:02;54.78;;;32.28;;
14892;SDS011;7538;53.626;9.906;2022-10-31T06:04:29;53.67;;;32.53;;
14892;SDS011;7538;53.626;9.906;2022-10-31T06:06:57;52.53;;;29.52;;
14892;SDS011;7538;53.626;9.906;2022-10-31T06:09:24;62.65;;;35.13;;
14892;SDS011;7538;53.626;9.906;2022-10-31T06:11:51;54.17;;;31.75;;
14892;SDS011;7538;53.626;9.906;2022-10-31T06:14:18;59.28;;;31.63;;
14892;SDS011;7538;53.626;9.906;2022-10-31T06:16:44;75.05;;;36.17;;
14892;SDS011;7538;53.626;9.906;2022-10-31T06:19:11;67.03;;;34.63;;
14892;SDS011;7538;53.626;9.906;2022-10-31T06:21:38;82.13;;;38.20;;
14892;SDS011;7538;53.626;9.906;2022-10-31T06:24:06;62.58;;;33.90;;
14892;SDS011;7538;53.626;9.906;2022-10-31T06:26:33;56.28;;;30.55;;
14892;SDS011;7538;53.626;9.906;2022-10-31T06:29:00;57.15;;;29.40;;
14892;SDS011;7538;53.626;9.906;2022-10-31T06:31:27;51.63;;;28.92;;
14892;SDS011;7538;53.626;9.906;2022-10-31T06:33:53;53.05;;;31.75;;
14892;SDS011;7538;53.626;9.906;2022-10-31T06:36:20;62.67;;;34.05;;
14892;SDS011;7538;53.626;9.906;2022-10-31T06:38:47;52.72;;;30.48;;
14892;SDS011;7538;53.626;9.906;2022-10-31T06:41:15;49.13;;;28.55;;
14892;SDS011;7538;53.626;9.906;2022-10-31T06:43:42;54.08;;;31.08;;
14892;SDS011;7538;53.626;9.906;2022-10-31T06:46:11;52.03;;;30.15;;
14892;SDS011;7538;53.626;9.906;2022-10-31T06:48:39;63.00;;;34.25;;
14892;SDS011;7538;53.626;9.906;2022-10-31T06:51:06;54.90;;;32.63;;
14892;SDS011;7538;53.626;9.906;2022-10-31T06:53:33;58.53;;;31.83;;
14892;SDS011;7538;53.626;9.906;2022-10-31T06:56:00;65.15;;;34.95;;
14892;SDS011;7538;53.626;9.906;2022-10-31T06:58:28;47.55;;;29.88;;
14892;SDS011;7538;53.626;9.906;2022-10-31T07:00:55;45.10;;;30.05;;
14892;SDS011;7538;53.626;9.906;2022-10-31T07:03:25;55.22;;;28.80;;
14892;SDS011;7538;53.626;9.906;2022-10-31T07:05:52;37.58;;;26.25;;
14892;SDS011;7538;53.626;9.906;2022-10-31T07:08:21;38.30;;;25.83;;
14892;SDS011;7538;53.626;9.906;2022-10-31T07:10:50;41.47;;;27.40;;
14892;SDS011;7538;53.626;9.906;2022-10-31T07:13:18;46.05;;;28.33;;
14892;SDS011;7538;53.626;9.906;2022-10-31T07:15:51;41.90;;;26.27;;
14892;SDS011;7538;53.626;9.906;2022-10-31T07:18:19;40.13;;;24.70;;
14892;SDS011;7538;53.626;9.906;2022-10-31T07:20:46;35.25;;;24.45;;
14892;SDS011;7538;53.626;9.906;2022-10-31T07:23:14;39.97;;;27.45;;
14892;SDS011;7538;53.626;9.906;2022-10-31T07:25:41;38.22;;;26.98;;
14892;SDS011;7538;53.626;9.906;2022-10-31T07:28:08;36.30;;;24.92;;
14892;SDS011;7538;53.626;9.906;2022-10-31T07:30:35;49.38;;;25.92;;
14892;SDS011;7538;53.626;9.906;2022-10-31T07:33:03;54.28;;;26.02;;
14892;SDS011;7538;53.626;9.906;2022-10-31T07:35:30;32.90;;;22.58;;
14892;SDS011;7538;53.626;9.906;2022-10-31T07:38:06;32.55;;;23.30;;
14892;SDS011;7538;53.626;9.906;2022-10-31T07:40:33;31.08;;;22.10;;
14892;SDS011;7538;53.626;9.906;2022-10-31T07:43:00;35.63;;;22.30;;
14892;SDS011;7538;53.626;9.906;2022-10-31T07:45:26;32.63;;;22.95;;
14892;SDS011;7538;53.626;9.906;2022-10-31T07:47:53;37.67;;;23.00;;
14892;SDS011;7538;53.626;9.906;2022-10-31T07:50:22;31.25;;;20.95;;
14892;SDS011;7538;53.626;9.906;2022-10-31T07:52:57;29.80;;;19.98;;
14892;SDS011;7538;53.626;9.906;2022-10-31T07:55:25;32.10;;;21.17;;
14892;SDS011;7538;53.626;9.906;2022-10-31T07:57:55;29.60;;;22.05;;
14892;SDS011;7538;53.626;9.906;2022-10-31T08:00:22;34.47;;;23.88;;
14892;SDS011;7538;53.626;9.906;2022-10-31T08:02:55;30.40;;;21.23;;
14892;SDS011;7538;53.626;9.906;2022-10-31T08:05:24;26.42;;;21.00;;
14892;SDS011;7538;53.626;9.906;2022-10-31T08:07:51;27.65;;;20.38;;
14892;SDS011;7538;53.626;9.906;2022-10-31T08:10:18;26.13;;;19.15;;
14892;SDS011;7538;53.626;9.906;2022-10-31T08:12:44;28.45;;;20.55;;
14892;SDS011;7538;53.626;9.906;2022-10-31T08:15:11;23.17;;;18.88;;
14892;SDS011;7538;53.626;9.906;2022-10-31T08:17:38;24.58;;;18.92;;
14892;SDS011;7538;53.626;9.906;2022-10-31T08:20:05;22.25;;;17.38;;
14892;SDS011;7538;53.626;9.906;2022-10-31T08:22:34;21.10;;;16.48;;
14892;SDS011;7538;53.626;9.906;2022-10-31T08:25:01;20.40;;;15.55;;
14892;SDS011;7538;53.626;9.906;2022-10-31T08:27:28;20.92;;;16.30;;
14892;SDS011;7538;53.626;9.906;2022-10-31T08:29:55;21.52;;;16.08;;
14892;SDS011;7538;53.626;9.906;2022-10-31T08:32:22;27.27;;;17.45;;
14892;SDS011;7538;53.626;9.906;2022-10-31T08:34:48;14.88;;;13.35;;
14892;SDS011;7538;53.626;9.906;2022-10-31T08:37:15;16.88;;;13.43;;
14892;SDS011;7538;53.626;9.906;2022-10-31T08:39:46;17.33;;;14.23;;
14892;SDS011;7538;53.626;9.906;2022-10-31T08:42:13;15.75;;;13.57;;
14892;SDS011;7538;53.626;9.906;2022-10-31T08:44:40;17.20;;;14.20;;
14892;SDS011;7538;53.626;9.906;2022-10-31T08:47:06;23.10;;;15.65;;
14892;SDS011;7538;53.626;9.906;2022-10-31T08:49:33;36.03;;;15.80;;
14892;SDS011;7538;53.626;9.906;2022-10-31T08:52:00;28.15;;;14.82;;
14892;SDS011;7538;53.626;9.906;2022-10-31T08:54:27;20.05;;;14.63;;
14892;SDS011;7538;53.626;9.906;2022-10-31T08:56:55;34.65;;;14.93;;
14892;SDS011;7538;53.626;9.906;2022-10-31T08:59:22;16.10;;;13.60;;
14892;SDS011;7538;53.626;9.906;2022-10-31T09:01:49;31.13;;;14.93;;
14892;SDS011;7538;53.626;9.906;2022-10-31T09:04:16;17.10;;;13.93;;
14892;SDS011;7538;53.626;9.906;2022-10-31T09:06:43;17.33;;;13.68;;
14892;SDS011;7538;53.626;9.906;2022-10-31T09:09:10;16.70;;;14.02;;
14892;SDS011;7538;53.626;9.906;2022-10-31T09:11:37;14.80;;;12.82;;
14892;SDS011;7538;53.626;9.906;2022-10-31T09:14:05;14.63;;;13.10;;
14892;SDS011;7538;53.626;9.906;2022-10-31T09:16:32;15.70;;;13.38;;
14892;SDS011;7538;53.626;9.906;2022-10-31T09:18:59;14.02;;;11.77;;
14892;SDS011;7538;53.626;9.906;2022-10-31T09:21:25;15.40;;;12.98;;
14892;SDS011;7538;53.626;9.906;2022-10-31T09:23:52;16.50;;;12.98;;
14892;SDS011;7538;53.626;9.906;2022-10-31T09:26:19;15.23;;;13.45;;
14892;SDS011;7538;53.626;9.906;2022-10-31T09:28:46;15.15;;;12.77;;
14892;SDS011;7538;53.626;9.906;2022-10-31T09:31:14;15.13;;;13.00;;
14892;SDS011;7538;53.626;9.906;2022-10-31T09:33:41;25.33;;;16.08;;
14892;SDS011;7538;53.626;9.906;2022-10-31T09:36:08;16.40;;;12.40;;
14892;SDS011;7538;53.626;9.906;2022-10-31T09:38:35;14.63;;;12.52;;
14892;SDS011;7538;53.626;9.906;2022-10-31T09:41:04;16.73;;;13.40;;
14892;SDS011;7538;53.626;9.906;2022-10-31T09:43:43;19.45;;;14.95;;
14892;SDS011;7538;53.626;9.906;2022-10-31T09:46:18;21.23;;;15.32;;
14892;SDS011;7538;53.626;9.906;2022-10-31T09:48:58;19.58;;;14.02;;
14892;SDS011;7538;53.626;9.906;2022-10-31T09:51:43;21.63;;;16.23;;
14892;SDS011;7538;53.626;9.906;2022-10-31T09:54:15;15.02;;;12.65;;
14892;SDS011;7538;53.626;9.906;2022-10-31T09:56:45;21.33;;;14.30;;
14892;SDS011;7538;53.626;9.906;2022-10-31T09:59:13;18.52;;;13.90;;
14892;SDS011;7538;53.626;9.906;2022-10-31T10:01:48;21.48;;;13.65;;
14892;SDS011;7538;53.626;9.906;2022-10-31T10:04:22;18.73;;;12.90;;
14892;SDS011;7538;53.626;9.906;2022-10-31T10:06:58;13.75;;;10.95;;
14892;SDS011;7538;53.626;9.906;2022-10-31T10:09:26;12.95;;;10.68;;
14892;SDS011;7538;53.626;9.906;2022-10-31T10:11:55;13.88;;;10.77;;
14892;SDS011;7538;53.626;9.906;2022-10-31T10:14:38;14.68;;;9.32;;
14892;SDS011;7538;53.626;9.906;2022-10-31T10:17:22;11.75;;;7.40;;
14892;SDS011;7538;53.626;9.906;2022-10-31T10:20:04;10.70;;;8.57;;
14892;SDS011;7538;53.626;9.906;2022-10-31T10:22:41;12.05;;;8.02;;
14892;SDS011;7538;53.626;9.906;2022-10-31T10:25:14;15.02;;;9.85;;
14892;SDS011;7538;53.626;9.906;2022-10-31T10:28:00;16.77;;;11.40;;
14892;SDS011;7538;53.626;9.906;2022-10-31T10:30:36;16.08;;;11.07;;
14892;SDS011;7538;53.626;9.906;2022-10-31T10:33:10;13.88;;;10.35;;
14892;SDS011;7538;53.626;9.906;2022-10-31T10:35:39;17.65;;;10.75;;
14892;SDS011;7538;53.626;9.906;2022-10-31T10:38:11;11.65;;;8.75;;
14892;SDS011;7538;53.626;9.906;2022-10-31T10:40:44;11.23;;;8.93;;
14892;SDS011;7538;53.626;9.906;2022-10-31T10:43:18;14.35;;;10.32;;
14892;SDS011;7538;53.626;9.906;2022-10-31T10:45:52;13.77;;;8.88;;
14892;SDS011;7538;53.626;9.906;2022-10-31T10:48:46;13.73;;;10.15;;
14892;SDS011;7538;53.626;9.906;2022-10-31T10:51:23;14.50;;;10.57;;
14892;SDS011;7538;53.626;9.906;2022-10-31T10:53:58;12.82;;;9.35;;
14892;SDS011;7538;53.626;9.906;2022-10-31T10:56:45;15.55;;;9.63;;
14892;SDS011;7538;53.626;9.906;2022-10-31T10:59:18;12.85;;;8.82;;
14892;SDS011;7538;53.626;9.906;2022-10-31T11:01:48;12.55;;;8.77;;
14892;SDS011;7538;53.626;9.906;2022-10-31T11:04:23;14.00;;;9.65;;
14892;SDS011;7538;53.626;9.906;2022-10-31T11:06:57;14.85;;;9.45;;
14892;SDS011;7538;53.626;9.906;2022-10-31T11:09:30;14.82;;;11.02;;
14892;SDS011;7538;53.626;9.906;2022-10-31T11:11:57;15.93;;;10.77;;
14892;SDS011;7538;53.626;9.906;2022-10-31T11:14:24;18.80;;;10.68;;
14892;SDS011;7538;53.626;9.906;2022-10-31T11:16:54;17.17;;;10.82;;
14892;SDS011;7538;53.626;9.906;2022-10-31T11:19:33;15.52;;;11.20;;
14892;SDS011;7538;53.626;9.906;2022-10-31T11:22:05;16.15;;;9.65;;
14892;SDS011;7538;53.626;9.906;2022-10-31T11:24:36;15.65;;;9.63;;
14892;SDS011;7538;53.626;9.906;2022-10-31T11:27:09;13.98;;;10.88;;
14892;SDS011;7538;53.626;9.906;2022-10-31T11:29:40;15.07;;;10.98;;
14892;SDS011;7538;53.626;9.906;2022-10-31T11:32:07;13.60;;;9.23;;
14892;SDS011;7538;53.626;9.906;2022-10-31T11:34:45;15.10;;;9.30;;
14892;SDS011;7538;53.626;9.906;2022-10-31T11:37:15;12.18;;;8.57;;
14892;SDS011;7538;53.626;9.906;2022-10-31T11:39:45;10.57;;;8.32;;
14892;SDS011;7538;53.626;9.906;2022-10-31T11:42:18;11.85;;;8.98;;
14892;SDS011;7538;53.626;9.906;2022-10-31T11:44:47;11.88;;;8.88;;
14892;SDS011;7538;53.626;9.906;2022-10-31T11:47:16;14.15;;;9.18;;
14892;SDS011;7538;53.626;9.906;2022-10-31T11:49:48;14.35;;;10.32;;
14892;SDS011;7538;53.626;9.906;2022-10-31T11:52:16;12.18;;;8.38;;
14892;SDS011;7538;53.626;9.906;2022-10-31T11:54:46;14.50;;;9.95;;
14892;SDS011;7538;53.626;9.906;2022-10-31T11:57:22;17.98;;;11.48;;
14892;SDS011;7538;53.626;9.906;2022-10-31T11:59:51;15.65;;;9.98;;
14892;SDS011;7538;53.626;9.906;2022-10-31T12:02:20;19.45;;;12.63;;
14892;SDS011;7538;53.626;9.906;2022-10-31T12:04:49;17.88;;;11.32;;
14892;SDS011;7538;53.626;9.906;2022-10-31T12:07:22;33.03;;;26.30;;
14892;SDS011;7538;53.626;9.906;2022-10-31T12:09:49;20.30;;;16.60;;
14892;SDS011;7538;53.626;9.906;2022-10-31T12:12:23;15.95;;;11.75;;
14892;SDS011;7538;53.626;9.906;2022-10-31T12:15:22;14.35;;;9.90;;
14892;SDS011;7538;53.626;9.906;2022-10-31T12:21:03;13.15;;;10.05;;
14892;SDS011;7538;53.626;9.906;2022-10-31T12:23:43;12.98;;;9.57;;
14892;SDS011;7538;53.626;9.906;2022-10-31T12:26:21;15.05;;;12.07;;
14892;SDS011;7538;53.626;9.906;2022-10-31T12:28:57;14.77;;;11.25;;
14892;SDS011;7538;53.626;9.906;2022-10-31T12:31:42;13.60;;;10.52;;
14892;SDS011;7538;53.626;9.906;2022-10-31T12:37:18;13.25;;;10.13;;
14892;SDS011;7538;53.626;9.906;2022-10-31T12:39:56;11.65;;;10.30;;
14892;SDS011;7538;53.626;9.906;2022-10-31T12:42:39;12.30;;;10.75;;
14892;SDS011;7538;53.626;9.906;2022-10-31T12:45:30;11.80;;;9.50;;
14892;SDS011;7538;53.626;9.906;2022-10-31T12:48:15;34.88;;;30.73;;
14892;SDS011;7538;53.626;9.906;2022-10-31T12:50:50;21.73;;;18.23;;
14892;SDS011;7538;53.626;9.906;2022-10-31T12:53:38;22.88;;;18.85;;
14892;SDS011;7538;53.626;9.906;2022-10-31T12:56:24;22.70;;;17.48;;
14892;SDS011;7538;53.626;9.906;2022-10-31T12:58:59;29.08;;;23.02;;
14892;SDS011;7538;53.626;9.906;2022-10-31T13:01:30;31.10;;;25.15;;
14892;SDS011;7538;53.626;9.906;2022-10-31T13:04:01;29.92;;;25.25;;
14892;SDS011;7538;53.626;9.906;2022-10-31T13:06:32;29.92;;;24.35;;
14892;SDS011;7538;53.626;9.906;2022-10-31T13:09:05;27.15;;;22.65;;
14892;SDS011;7538;53.626;9.906;2022-10-31T13:11:34;29.95;;;23.98;;
14892;SDS011;7538;53.626;9.906;2022-10-31T13:14:05;31.27;;;24.42;;
14892;SDS011;7538;53.626;9.906;2022-10-31T13:16:36;31.48;;;24.05;;
14892;SDS011;7538;53.626;9.906;2022-10-31T13:19:08;25.48;;;20.88;;
14892;SDS011;7538;53.626;9.906;2022-10-31T13:21:41;26.20;;;21.38;;
14892;SDS011;7538;53.626;9.906;2022-10-31T13:24:18;32.05;;;23.45;;
14892;SDS011;7538;53.626;9.906;2022-10-31T13:26:48;30.88;;;23.85;;
14892;SDS011;7538;53.626;9.906;2022-10-31T13:29:18;35.05;;;23.73;;
14892;SDS011;7538;53.626;9.906;2022-10-31T13:31:49;24.67;;;20.27;;
14892;SDS011;7538;53.626;9.906;2022-10-31T13:34:18;25.48;;;20.73;;
14892;SDS011;7538;53.626;9.906;2022-10-31T13:36:52;25.52;;;20.83;;
14892;SDS011;7538;53.626;9.906;2022-10-31T13:39:29;26.80;;;20.90;;
14892;SDS011;7538;53.626;9.906;2022-10-31T13:42:07;27.98;;;21.10;;
14892;SDS011;7538;53.626;9.906;2022-10-31T13:44:40;27.52;;;20.92;;
14892;SDS011;7538;53.626;9.906;2022-10-31T13:47:20;29.85;;;22.63;;
14892;SDS011;7538;53.626;9.906;2022-10-31T13:49:49;29.02;;;22.25;;
14892;SDS011;7538;53.626;9.906;2022-10-31T13:52:16;26.10;;;20.25;;
14892;SDS011;7538;53.626;9.906;2022-10-31T13:54:51;29.27;;;21.45;;
14892;SDS011;7538;53.626;9.906;2022-10-31T13:57:28;30.77;;;22.20;;
14892;SDS011;7538;53.626;9.906;2022-10-31T13:59:58;30.52;;;22.30;;
14892;SDS011;7538;53.626;9.906;2022-10-31T14:02:28;33.05;;;22.15;;
14892;SDS011;7538;53.626;9.906;2022-10-31T14:04:58;35.75;;;23.77;;
14892;SDS011;7538;53.626;9.906;2022-10-31T14:07:26;31.02;;;22.85;;
14892;SDS011;7538;53.626;9.906;2022-10-31T14:09:57;33.08;;;23.33;;
14892;SDS011;7538;53.626;9.906;2022-10-31T14:12:29;36.63;;;24.13;;
14892;SDS011;7538;53.626;9.906;2022-10-31T14:14:58;38.03;;;26.77;;
14892;SDS011;7538;53.626;9.906;2022-10-31T14:17:32;37.22;;;25.40;;
14892;SDS011;7538;53.626;9.906;2022-10-31T14:20:22;32.38;;;25.35;;
14892;SDS011;7538;53.626;9.906;2022-10-31T14:23:11;33.25;;;23.60;;
14892;SDS011;7538;53.626;9.906;2022-10-31T14:25:54;34.53;;;24.08;;
14892;SDS011;7538;53.626;9.906;2022-10-31T14:28:44;29.55;;;21.83;;
14892;SDS011;7538;53.626;9.906;2022-10-31T14:31:27;28.50;;;21.80;;
14892;SDS011;7538;53.626;9.906;2022-10-31T14:34:00;32.50;;;22.10;;
14892;SDS011;7538;53.626;9.906;2022-10-31T14:36:30;34.88;;;21.92;;
14892;SDS011;7538;53.626;9.906;2022-10-31T14:39:06;31.02;;;21.70;;
14892;SDS011;7538;53.626;9.906;2022-10-31T14:41:45;31.33;;;21.83;;
14892;SDS011;7538;53.626;9.906;2022-10-31T14:47:19;27.73;;;20.98;;
14892;SDS011;7538;53.626;9.906;2022-10-31T14:53:05;27.30;;;20.73;;
14892;SDS011;7538;53.626;9.906;2022-10-31T14:55:45;29.63;;;21.33;;
14892;SDS011;7538;53.626;9.906;2022-10-31T14:58:17;31.30;;;20.90;;
14892;SDS011;7538;53.626;9.906;2022-10-31T15:00:47;26.20;;;19.00;;
14892;SDS011;7538;53.626;9.906;2022-10-31T15:03:15;27.75;;;19.35;;
14892;SDS011;7538;53.626;9.906;2022-10-31T15:05:46;27.65;;;20.42;;
14892;SDS011;7538;53.626;9.906;2022-10-31T15:08:32;23.00;;;17.75;;
14892;SDS011;7538;53.626;9.906;2022-10-31T15:11:11;27.08;;;19.33;;
14892;SDS011;7538;53.626;9.906;2022-10-31T15:13:44;25.90;;;17.77;;
14892;SDS011;7538;53.626;9.906;2022-10-31T15:16:13;25.23;;;17.88;;